Time;durP1;ratioP1;P1;durP2;ratioP2;P2;SDS_P1;SDS_P2;PMS_P1;PMS_P2;Temp;Humidity;BMP_temperature;BMP_pressure;BME280_temperature;BME280_humidity;BME280_pressure;Samples;Min_cycle;Max_cycle;Signal;HPM_P1;HPM_P2
2022/12/23 00:01:17;;;;;;;4.72;1.52;;;;;;;;;;5108962;28;20027;-47
2022/12/23 00:03:43;;;;;;;4.90;1.40;;;;;;;;;;5108588;28;20063;-46
2022/12/23 00:06:10;;;;;;;3.25;1.52;;;;;;;;;;5108217;28;20024;-47
2022/12/23 00:08:36;;;;;;;5.43;1.40;;;;;;;;;;5109270;28;20027;-45
2022/12/23 00:11:03;;;;;;;4.95;1.50;;;;;;;;;;5107917;28;20051;-46
2022/12/23 00:16:14;;;;;;;3.28;1.30;;;;;;;;;;5108916;28;20805;-48
2022/12/23 00:18:41;;;;;;;2.05;1.05;;;;;;;;;;5108374;28;20036;-44
2022/12/23 00:21:08;;;;;;;3.35;1.10;;;;;;;;;;5109286;28;20031;-46
2022/12/23 00:23:35;;;;;;;2.80;1.30;;;;;;;;;;5108739;28;20024;-45
2022/12/23 00:26:01;;;;;;;4.03;1.50;;;;;;;;;;5105383;28;20031;-48
2022/12/23 00:28:29;;;;;;;3.78;1.10;;;;;;;;;;5088440;28;20031;-47
2022/12/23 00:30:58;;;;;;;2.30;0.95;;;;;;;;;;5088298;28;20020;-46
2022/12/23 00:33:26;;;;;;;2.58;1.17;;;;;;;;;;5088064;28;20494;-45
2022/12/23 00:35:52;;;;;;;3.95;1.17;;;;;;;;;;5088200;28;20496;-47
2022/12/23 00:43:49;;;;;;;2.80;1.05;;;;;;;;;;5108505;28;20039;-48
2022/12/23 00:46:15;;;;;;;5.32;1.30;;;;;;;;;;5108522;28;20028;-47
2022/12/23 00:51:26;;;;;;;3.10;1.23;;;;;;;;;;5108884;28;20505;-46
2022/12/23 00:53:52;;;;;;;3.92;1.13;;;;;;;;;;5108296;28;20047;-46
2022/12/23 00:56:18;;;;;;;4.47;1.40;;;;;;;;;;5107611;28;20031;-45
2022/12/23 00:58:44;;;;;;;3.60;1.10;;;;;;;;;;5106646;28;20106;-46
2022/12/23 06:11:11;;;;;;;1.30;0.70;;;;;;;;;;5106794;27;20417;-45
2022/12/23 06:13:37;;;;;;;2.08;0.85;;;;;;;;;;5092078;28;20426;-47
2022/12/23 06:16:03;;;;;;;3.15;1.08;;;;;;;;;;5111084;28;20106;-49
2022/12/23 06:18:30;;;;;;;0.85;0.65;;;;;;;;;;5111158;28;20031;-48
2022/12/23 06:20:56;;;;;;;1.30;0.80;;;;;;;;;;5096171;28;20127;-48
2022/12/23 06:23:22;;;;;;;2.33;0.80;;;;;;;;;;5090676;28;20479;-48
2022/12/23 06:25:48;;;;;;;2.40;0.90;;;;;;;;;;5090264;28;20035;-45
2022/12/23 06:28:14;;;;;;;1.58;0.80;;;;;;;;;;5090546;28;20032;-46
2022/12/23 06:30:40;;;;;;;2.33;1.48;;;;;;;;;;5090455;28;20016;-47
2022/12/23 06:33:06;;;;;;;3.38;1.08;;;;;;;;;;5090371;28;20024;-45
2022/12/23 06:35:32;;;;;;;0.90;0.73;;;;;;;;;;5103412;28;20028;-47
2022/12/23 06:37:58;;;;;;;1.98;0.90;;;;;;;;;;5110781;28;20448;-47
2022/12/23 06:40:24;;;;;;;2.53;1.00;;;;;;;;;;5110408;28;20106;-47
2022/12/23 06:42:50;;;;;;;2.58;0.98;;;;;;;;;;5110500;28;20106;-47
2022/12/23 06:45:16;;;;;;;2.75;1.10;;;;;;;;;;5110860;28;20023;-46
2022/12/23 06:47:42;;;;;;;2.95;1.10;;;;;;;;;;5110693;28;20402;-47
2022/12/23 06:50:08;;;;;;;2.83;1.33;;;;;;;;;;5109528;28;20020;-47
2022/12/23 06:52:34;;;;;;;1.20;1.00;;;;;;;;;;5110457;28;20043;-48
2022/12/23 06:55:00;;;;;;;2.22;1.10;;;;;;;;;;5105730;28;20019;-46
2022/12/23 06:57:27;;;;;;;2.55;1.20;;;;;;;;;;5110127;28;20028;-46
2022/12/23 06:59:53;;;;;;;3.67;1.70;;;;;;;;;;5110166;28;20030;-45
2022/12/23 07:02:19;;;;;;;5.05;1.40;;;;;;;;;;5101838;28;20441;-45
2022/12/23 07:04:45;;;;;;;2.17;1.63;;;;;;;;;;5109489;28;20031;-46
2022/12/23 07:07:11;;;;;;;3.92;1.45;;;;;;;;;;5107654;28;20027;-44
2022/12/23 07:09:37;;;;;;;2.60;1.30;;;;;;;;;;5109812;28;20024;-47
2022/12/23 07:12:03;;;;;;;3.00;1.45;;;;;;;;;;5109620;28;20111;-45
2022/12/23 07:14:29;;;;;;;2.38;1.15;;;;;;;;;;5108838;28;20032;-48
2022/12/23 07:16:55;;;;;;;1.98;1.25;;;;;;;;;;5109896;28;20385;-44
2022/12/23 07:19:21;;;;;;;4.47;1.27;;;;;;;;;;5109148;28;20051;-49
2022/12/23 07:21:47;;;;;;;2.70;1.50;;;;;;;;;;5109610;28;20080;-46
2022/12/23 07:24:13;;;;;;;2.95;1.20;;;;;;;;;;5109211;28;20100;-46
2022/12/23 07:26:39;;;;;;;3.53;1.50;;;;;;;;;;5109362;28;20038;-46
2022/12/23 07:29:06;;;;;;;2.22;1.38;;;;;;;;;;5108787;28;20024;-48
2022/12/23 07:31:32;;;;;;;1.77;1.15;;;;;;;;;;5089624;28;20402;-48
2022/12/23 07:33:58;;;;;;;1.63;1.05;;;;;;;;;;5109689;28;20107;-45
2022/12/23 07:36:24;;;;;;;2.17;1.20;;;;;;;;;;5108817;28;20065;-48
2022/12/23 07:38:50;;;;;;;1.23;0.98;;;;;;;;;;5109441;28;20641;-45
2022/12/23 07:41:17;;;;;;;2.53;1.08;;;;;;;;;;5108859;28;20039;-48
2022/12/23 07:43:43;;;;;;;1.95;1.00;;;;;;;;;;5109337;28;20760;-44
2022/12/23 07:46:09;;;;;;;3.00;1.65;;;;;;;;;;5106450;28;20035;-45
2022/12/23 07:48:35;;;;;;;2.13;1.17;;;;;;;;;;5109065;28;20095;-48
2022/12/23 07:51:04;;;;;;;2.03;1.23;;;;;;;;;;5109269;28;20023;-46
2022/12/23 07:53:30;;;;;;;3.67;1.60;;;;;;;;;;5109077;28;20077;-46
2022/12/23 07:55:56;;;;;;;2.70;1.35;;;;;;;;;;5107936;28;20020;-48
2022/12/23 07:58:22;;;;;;;2.90;1.40;;;;;;;;;;5105444;28;20035;-45
2022/12/23 08:00:48;;;;;;;1.65;1.17;;;;;;;;;;5102569;28;20036;-44
2022/12/23 08:03:14;;;;;;;1.88;1.20;;;;;;;;;;5102837;28;20059;-48
2022/12/23 08:05:40;;;;;;;2.28;1.20;;;;;;;;;;5108893;28;20042;-43
2022/12/23 08:08:06;;;;;;;2.15;1.02;;;;;;;;;;5109042;28;20023;-48
2022/12/23 08:10:32;;;;;;;2.60;1.10;;;;;;;;;;5103950;28;20644;-45
2022/12/23 08:13:01;;;;;;;3.22;1.55;;;;;;;;;;5108093;28;20645;-44
2022/12/23 08:15:27;;;;;;;3.08;1.33;;;;;;;;;;5108369;28;20099;-45
2022/12/23 08:17:55;;;;;;;3.47;1.40;;;;;;;;;;5109048;28;20036;-44
2022/12/23 08:20:21;;;;;;;4.43;1.40;;;;;;;;;;5108808;28;20039;-48
2022/12/23 08:22:47;;;;;;;3.47;1.48;;;;;;;;;;5108898;28;20024;-46
2022/12/23 08:25:13;;;;;;;1.90;1.20;;;;;;;;;;5108426;28;20080;-48
2022/12/23 08:27:39;;;;;;;3.03;1.20;;;;;;;;;;5101944;28;20058;-44
2022/12/23 08:30:06;;;;;;;3.15;1.45;;;;;;;;;;5105230;28;20049;-45
2022/12/23 08:32:32;;;;;;;3.67;1.42;;;;;;;;;;5108109;28;20031;-47
2022/12/23 08:34:58;;;;;;;2.33;1.27;;;;;;;;;;5108922;28;20517;-44
2022/12/23 08:37:25;;;;;;;3.00;1.30;;;;;;;;;;5108885;28;20406;-48
2022/12/23 08:39:51;;;;;;;4.00;1.33;;;;;;;;;;5110269;28;20024;-46
2022/12/23 08:42:17;;;;;;;4.72;1.25;;;;;;;;;;5110958;28;20020;-48
2022/12/23 08:44:43;;;;;;;3.13;0.95;;;;;;;;;;5096362;28;20032;-45
2022/12/23 08:47:09;;;;;;;1.42;0.90;;;;;;;;;;5100264;28;20031;-46
2022/12/23 08:49:35;;;;;;;1.80;0.80;;;;;;;;;;5112814;28;20547;-48
2022/12/23 08:52:02;;;;;;;4.80;1.15;;;;;;;;;;5104126;28;20024;-46
2022/12/23 08:54:29;;;;;;;1.15;0.88;;;;;;;;;;5110160;28;20106;-49
2022/12/23 08:56:55;;;;;;;1.38;0.88;;;;;;;;;;5110943;28;20047;-47
2022/12/23 08:59:22;;;;;;;1.30;1.02;;;;;;;;;;5111029;28;20124;-48
2022/12/23 09:01:48;;;;;;;3.05;0.95;;;;;;;;;;5110967;28;20383;-48
2022/12/23 09:04:14;;;;;;;2.03;0.93;;;;;;;;;;5111026;28;20031;-47
2022/12/23 09:06:41;;;;;;;2.47;1.20;;;;;;;;;;5110937;28;20028;-48
2022/12/23 09:09:08;;;;;;;2.30;0.93;;;;;;;;;;5110760;28;20054;-46
2022/12/23 09:11:34;;;;;;;2.60;1.13;;;;;;;;;;5110260;28;20027;-46
2022/12/23 09:14:01;;;;;;;2.20;1.23;;;;;;;;;;5091928;28;20039;-45
2022/12/23 09:16:28;;;;;;;1.42;1.08;;;;;;;;;;5090330;28;20020;-49
2022/12/23 09:18:55;;;;;;;2.20;1.23;;;;;;;;;;5090317;28;20028;-48
2022/12/23 09:21:23;;;;;;;2.05;1.08;;;;;;;;;;5090117;28;20020;-47
2022/12/23 09:23:49;;;;;;;2.58;1.02;;;;;;;;;;5071720;28;20415;-48
2022/12/23 09:26:23;;;;;;;2.20;1.20;;;;;;;;;;5090038;28;20050;-47
2022/12/23 09:28:49;;;;;;;2.00;0.85;;;;;;;;;;5090274;28;20039;-46
2022/12/23 09:31:15;;;;;;;1.90;1.10;;;;;;;;;;5090170;28;20468;-48
2022/12/23 09:33:41;;;;;;;1.83;1.00;;;;;;;;;;5090068;28;20024;-48
2022/12/23 09:36:07;;;;;;;1.40;1.00;;;;;;;;;;5089705;28;20020;-45
2022/12/23 09:38:34;;;;;;;1.95;1.05;;;;;;;;;;5090011;28;20032;-46
2022/12/23 09:41:08;;;;;;;2.20;1.27;;;;;;;;;;5089806;28;20080;-47
2022/12/23 09:43:34;;;;;;;4.25;1.60;;;;;;;;;;5090316;28;20032;-47
2022/12/23 09:46:16;;;;;;;3.13;1.50;;;;;;;;;;5089355;28;20047;-46
2022/12/23 09:48:50;;;;;;;2.22;1.58;;;;;;;;;;5090290;28;20381;-48
2022/12/23 09:51:17;;;;;;;3.55;1.88;;;;;;;;;;5084627;28;20407;-47
2022/12/23 09:53:48;;;;;;;2.90;1.80;;;;;;;;;;5084569;28;20490;-45
2022/12/23 09:56:13;;;;;;;1.85;1.25;;;;;;;;;;5088494;28;20527;-48
2022/12/23 09:58:56;;;;;;;2.78;1.00;;;;;;;;;;5090989;28;20062;-48
2022/12/23 10:01:28;;;;;;;4.10;1.30;;;;;;;;;;5090197;28;20116;-45
2022/12/23 10:03:54;;;;;;;1.65;1.20;;;;;;;;;;5090215;28;20016;-49
2022/12/23 10:06:22;;;;;;;2.47;1.40;;;;;;;;;;5090284;28;20028;-46
2022/12/23 10:08:49;;;;;;;2.35;1.50;;;;;;;;;;5090198;28;20020;-49
2022/12/23 10:11:24;;;;;;;1.38;0.90;;;;;;;;;;5090122;28;20028;-47
2022/12/23 10:13:53;;;;;;;2.72;1.25;;;;;;;;;;5107033;28;20034;-44
2022/12/23 10:16:19;;;;;;;2.10;1.17;;;;;;;;;;5110379;28;20084;-49
2022/12/23 10:19:04;;;;;;;1.95;1.42;;;;;;;;;;5110622;28;20047;-46
2022/12/23 10:21:44;;;;;;;3.08;1.35;;;;;;;;;;5110210;28;20055;-46
2022/12/23 10:24:21;;;;;;;2.90;1.10;;;;;;;;;;5110201;28;20031;-45
2022/12/23 10:26:55;;;;;;;5.15;1.52;;;;;;;;;;5110009;28;20032;-47
2022/12/23 10:29:23;;;;;;;2.55;1.35;;;;;;;;;;5109995;28;20052;-45
2022/12/23 10:32:00;;;;;;;2.90;1.52;;;;;;;;;;5109783;28;20632;-47
2022/12/23 10:34:26;;;;;;;3.47;1.60;;;;;;;;;;5110005;28;20395;-47
2022/12/23 10:37:11;;;;;;;3.85;1.67;;;;;;;;;;5110110;28;20107;-47
2022/12/23 10:39:43;;;;;;;2.67;1.48;;;;;;;;;;5109902;28;20115;-45
2022/12/23 10:42:16;;;;;;;3.92;2.10;;;;;;;;;;5110072;28;20401;-47
2022/12/23 10:44:49;;;;;;;7.28;3.10;;;;;;;;;;5110455;28;20038;-48
2022/12/23 10:47:30;;;;;;;7.35;2.63;;;;;;;;;;5109782;28;20073;-47
2022/12/23 10:49:59;;;;;;;4.57;2.20;;;;;;;;;;5108909;28;20073;-48
2022/12/23 10:52:28;;;;;;;4.65;2.38;;;;;;;;;;5109994;28;20024;-45
2022/12/23 10:54:54;;;;;;;3.55;2.05;;;;;;;;;;5110022;28;20053;-47
2022/12/23 10:57:22;;;;;;;3.08;1.85;;;;;;;;;;5105714;28;20085;-46
2022/12/23 10:59:48;;;;;;;3.60;2.00;;;;;;;;;;5108252;28;20486;-45
2022/12/23 11:02:14;;;;;;;5.00;2.05;;;;;;;;;;5110006;28;20030;-45
2022/12/23 11:04:44;;;;;;;3.33;2.00;;;;;;;;;;5109440;28;20035;-46
2022/12/23 11:07:17;;;;;;;2.88;1.95;;;;;;;;;;5090146;28;20498;-48
2022/12/23 11:09:50;;;;;;;5.18;1.95;;;;;;;;;;5108598;28;20027;-48
2022/12/23 11:12:21;;;;;;;3.03;1.95;;;;;;;;;;5108133;28;20027;-44
2022/12/23 11:14:52;;;;;;;4.15;2.20;;;;;;;;;;5108449;28;20453;-45
2022/12/23 11:17:20;;;;;;;4.18;2.03;;;;;;;;;;5108271;28;20034;-49
2022/12/23 11:19:46;;;;;;;2.40;1.73;;;;;;;;;;5108081;28;20447;-46
2022/12/23 11:22:23;;;;;;;4.68;2.30;;;;;;;;;;5108350;28;20469;-47
2022/12/23 11:24:49;;;;;;;2.70;2.00;;;;;;;;;;5108023;28;20039;-47
2022/12/23 11:27:15;;;;;;;3.53;1.80;;;;;;;;;;5104296;28;20028;-47
2022/12/23 11:29:50;;;;;;;3.25;1.80;;;;;;;;;;5105625;28;20028;-49
2022/12/23 11:32:18;;;;;;;2.72;1.92;;;;;;;;;;5102562;28;20016;-44
2022/12/23 11:34:45;;;;;;;3.42;1.65;;;;;;;;;;5108748;28;20039;-46
2022/12/23 11:37:23;;;;;;;1.92;1.55;;;;;;;;;;5109649;28;20020;-45
2022/12/23 11:39:49;;;;;;;2.50;1.80;;;;;;;;;;5109088;28;20027;-45
2022/12/23 11:42:16;;;;;;;3.65;2.00;;;;;;;;;;5109355;28;20414;-49
2022/12/23 11:44:50;;;;;;;2.85;1.70;;;;;;;;;;5109248;28;20031;-48
2022/12/23 11:47:22;;;;;;;3.53;1.90;;;;;;;;;;5109070;28;20030;-46
2022/12/23 11:49:50;;;;;;;3.72;1.98;;;;;;;;;;5108922;28;20024;-47
2022/12/23 11:52:20;;;;;;;3.65;2.53;;;;;;;;;;5109113;28;20015;-48
2022/12/23 11:54:50;;;;;;;7.30;1.95;;;;;;;;;;5105654;28;20507;-46
2022/12/23 11:57:18;;;;;;;3.55;1.80;;;;;;;;;;5087436;28;20047;-47
2022/12/23 11:59:47;;;;;;;4.55;2.10;;;;;;;;;;5093044;28;20410;-48
2022/12/23 12:02:32;;;;;;;2.67;1.63;;;;;;;;;;5104256;28;20031;-45
2022/12/23 12:05:24;;;;;;;7.57;1.98;;;;;;;;;;5087229;28;20027;-46
2022/12/23 12:07:51;;;;;;;2.67;1.33;;;;;;;;;;5055878;28;20044;-45
2022/12/23 12:10:18;;;;;;;3.83;1.77;;;;;;;;;;5086551;28;20032;-45
2022/12/23 12:12:45;;;;;;;4.90;1.88;;;;;;;;;;5087074;28;20036;-48
2022/12/23 12:15:24;;;;;;;5.53;1.77;;;;;;;;;;5094252;28;20039;-47
2022/12/23 12:17:52;;;;;;;6.80;3.45;;;;;;;;;;5103356;28;20439;-47
2022/12/23 12:20:21;;;;;;;5.93;2.80;;;;;;;;;;5086711;28;20031;-48
2022/12/23 12:23:13;;;;;;;5.03;2.38;;;;;;;;;;5098776;28;20024;-49
2022/12/23 12:25:45;;;;;;;4.63;2.47;;;;;;;;;;5106107;28;20031;-49
2022/12/23 12:28:18;;;;;;;3.20;1.92;;;;;;;;;;5107490;28;20032;-49
2022/12/23 12:30:48;;;;;;;7.25;3.53;;;;;;;;;;5096317;28;20036;-46
2022/12/23 12:33:14;;;;;;;7.38;4.03;;;;;;;;;;5104759;28;20037;-47
2022/12/23 12:35:42;;;;;;;5.15;3.17;;;;;;;;;;5104711;28;20028;-47
2022/12/23 12:38:21;;;;;;;4.75;2.47;;;;;;;;;;5107173;28;20032;-49
2022/12/23 12:40:50;;;;;;;3.70;2.10;;;;;;;;;;5106809;28;20112;-48
2022/12/23 12:43:29;;;;;;;4.07;2.20;;;;;;;;;;5107155;28;20054;-47
2022/12/23 12:46:04;;;;;;;3.60;1.98;;;;;;;;;;5107069;28;20027;-49
2022/12/23 12:48:54;;;;;;;3.63;2.03;;;;;;;;;;5107186;28;20448;-49
2022/12/23 12:51:32;;;;;;;5.00;1.48;;;;;;;;;;5105806;28;20080;-49
2022/12/23 12:54:25;;;;;;;2.95;1.77;;;;;;;;;;5105506;28;20436;-45
2022/12/23 12:56:53;;;;;;;2.83;1.65;;;;;;;;;;5100450;28;20089;-47
2022/12/23 12:59:27;;;;;;;4.63;2.10;;;;;;;;;;5090101;28;20050;-47
2022/12/23 13:01:53;;;;;;;;;;;;;;;;;;5087055;28;20028;-46
2022/12/23 13:04:19;;;;;;;2.55;1.60;;;;;;;;;;5085781;28;19912;-48
2022/12/23 13:06:46;;;;;;;3.42;1.85;;;;;;;;;;5086569;28;20055;-49
2022/12/23 13:09:11;;;;;;;3.38;1.90;;;;;;;;;;5086573;28;20499;-46
2022/12/23 13:11:44;;;;;;;3.55;2.00;;;;;;;;;;5085950;28;20020;-45
2022/12/23 13:14:23;;;;;;;2.45;1.75;;;;;;;;;;5106348;28;20036;-47
2022/12/23 13:17:04;;;;;;;3.05;2.08;;;;;;;;;;5107003;28;20030;-46
2022/12/23 13:19:41;;;;;;;3.65;2.28;;;;;;;;;;5105457;28;20044;-46
2022/12/23 13:22:10;;;;;;;3.80;2.05;;;;;;;;;;5091030;28;20020;-46
2022/12/23 13:24:53;;;;;;;3.95;2.42;;;;;;;;;;5090126;28;20024;-48
2022/12/23 13:27:34;;;;;;;4.20;2.08;;;;;;;;;;5099203;28;20024;-48
2022/12/23 13:30:12;;;;;;;3.72;2.10;;;;;;;;;;5105777;28;20028;-46
2022/12/23 13:32:41;;;;;;;3.78;2.30;;;;;;;;;;5094682;28;20020;-47
2022/12/23 13:35:26;;;;;;;2.90;2.25;;;;;;;;;;5106294;28;20024;-45
2022/12/23 13:38:11;;;;;;;3.35;2.03;;;;;;;;;;5094555;28;20034;-48
2022/12/23 13:40:37;;;;;;;;;;;;;;;;;;5097159;28;20032;-49
2022/12/23 13:43:05;;;;;;;3.78;2.22;;;;;;;;;;5089520;28;19904;-47
2022/12/23 13:45:33;;;;;;;4.00;2.08;;;;;;;;;;5096808;28;20020;-45
2022/12/23 13:48:09;;;;;;;4.43;2.17;;;;;;;;;;5101511;28;20381;-47
2022/12/23 13:50:38;;;;;;;5.53;2.15;;;;;;;;;;5109600;28;20015;-46
2022/12/23 13:53:19;;;;;;;2.53;1.63;;;;;;;;;;5109242;28;20501;-46
2022/12/23 13:56:04;;;;;;;5.38;2.00;;;;;;;;;;5108546;28;20103;-48
2022/12/23 13:58:32;;;;;;;2.58;1.58;;;;;;;;;;5105011;28;20035;-47
2022/12/23 14:01:07;;;;;;;5.28;2.10;;;;;;;;;;5109349;28;20028;-45
2022/12/23 14:03:35;;;;;;;5.10;2.17;;;;;;;;;;5108065;28;20032;-45
2022/12/23 14:06:21;;;;;;;5.68;1.92;;;;;;;;;;5109262;28;20455;-46
2022/12/23 14:08:47;;;;;;;5.45;2.13;;;;;;;;;;5105373;28;20123;-45
2022/12/23 14:11:16;;;;;;;5.80;2.65;;;;;;;;;;5106930;28;20027;-46
2022/12/23 14:13:51;;;;;;;5.05;2.78;;;;;;;;;;5110799;27;20039;-46
2022/12/23 14:16:30;;;;;;;10.05;5.13;;;;;;;;;;5103198;28;20020;-46
2022/12/23 14:19:10;;;;;;;8.00;4.57;;;;;;;;;;5093907;27;20426;-45
2022/12/23 14:21:37;;;;;;;8.18;3.90;;;;;;;;;;5089990;28;20028;-49
2022/12/23 14:24:06;;;;;;;6.22;3.75;;;;;;;;;;5089796;28;20035;-47
2022/12/23 14:26:51;;;;;;;5.85;2.90;;;;;;;;;;5105535;27;20212;-47
2022/12/23 14:29:40;;;;;;;3.35;2.00;;;;;;;;;;5099617;28;20027;-48
2022/12/23 14:32:17;;;;;;;3.80;2.00;;;;;;;;;;5099906;28;20721;-46
2022/12/23 14:35:03;;;;;;;3.38;1.92;;;;;;;;;;5103733;28;20094;-47
2022/12/23 14:37:33;;;;;;;7.03;2.42;;;;;;;;;;5088030;28;20357;-45
2022/12/23 14:40:19;;;;;;;3.10;1.92;;;;;;;;;;5088352;28;20055;-48
2022/12/23 14:42:45;;;;;;;2.38;1.50;;;;;;;;;;5088342;28;20039;-46
2022/12/23 14:45:34;;;;;;;3.17;1.80;;;;;;;;;;5102054;28;20035;-46
2022/12/23 14:48:01;;;;;;;2.78;1.90;;;;;;;;;;5108447;28;20027;-46
2022/12/23 14:50:34;;;;;;;4.22;1.92;;;;;;;;;;5108269;28;20098;-49
2022/12/23 14:53:39;;;;;;;4.65;2.42;;;;;;;;;;5108079;28;20026;-48
2022/12/23 14:56:07;;;;;;;3.88;2.50;;;;;;;;;;5024970;28;20018;-49
2022/12/23 14:58:37;;;;;;;4.13;2.05;;;;;;;;;;5023514;28;20061;-45
2022/12/23 15:01:09;;;;;;;4.20;2.65;;;;;;;;;;5067341;28;20521;-47
2022/12/23 15:03:41;;;;;;;4.93;2.70;;;;;;;;;;5088618;28;20089;-45
2022/12/23 15:06:07;;;;;;;4.80;2.70;;;;;;;;;;5088299;28;20109;-45
2022/12/23 15:08:35;;;;;;;6.28;2.40;;;;;;;;;;5087233;28;20135;-48
2022/12/23 15:11:02;;;;;;;3.92;2.25;;;;;;;;;;5087840;28;20279;-48
2022/12/23 15:13:29;;;;;;;5.15;2.45;;;;;;;;;;5090533;28;20027;-47
2022/12/23 15:15:56;;;;;;;5.25;3.42;;;;;;;;;;5108027;28;20101;-46
2022/12/23 15:18:23;;;;;;;4.43;2.50;;;;;;;;;;5107961;28;20110;-46
2022/12/23 15:21:02;;;;;;;4.10;2.30;;;;;;;;;;5102670;28;20088;-45
2022/12/23 15:23:28;;;;;;;3.78;2.10;;;;;;;;;;5087292;28;20398;-45
2022/12/23 15:25:59;;;;;;;6.07;2.35;;;;;;;;;;5087501;28;20032;-48
2022/12/23 15:28:34;;;;;;;2.47;1.73;;;;;;;;;;5096102;28;20572;-46
2022/12/23 15:31:00;;;;;;;4.97;2.15;;;;;;;;;;5093192;28;20412;-44
2022/12/23 15:33:29;;;;;;;3.75;2.15;;;;;;;;;;5087376;28;20024;-48
2022/12/23 15:35:55;;;;;;;4.95;1.95;;;;;;;;;;5088101;28;20035;-46
2022/12/23 15:38:26;;;;;;;3.03;2.05;;;;;;;;;;5087090;28;20472;-49
2022/12/23 15:40:57;;;;;;;5.00;2.00;;;;;;;;;;5087224;28;20032;-45
2022/12/23 15:43:23;;;;;;;3.75;1.70;;;;;;;;;;5087049;28;20035;-46
2022/12/23 15:45:49;;;;;;;3.42;1.70;;;;;;;;;;5095623;28;20039;-46
2022/12/23 15:48:31;;;;;;;4.50;1.77;;;;;;;;;;5108675;28;20027;-45
2022/12/23 15:51:00;;;;;;;3.53;2.00;;;;;;;;;;5107487;28;20098;-45
2022/12/23 15:53:37;;;;;;;4.53;2.45;;;;;;;;;;5108439;28;20119;-48
2022/12/23 15:56:06;;;;;;;3.75;2.20;;;;;;;;;;5104248;28;20024;-44
2022/12/23 15:58:35;;;;;;;7.38;2.60;;;;;;;;;;5088325;28;20199;-46
2022/12/23 16:01:01;;;;;;;4.13;2.30;;;;;;;;;;5101446;28;20028;-47
2022/12/23 16:03:31;;;;;;;3.80;2.30;;;;;;;;;;5108549;28;20031;-47
2022/12/23 16:06:13;;;;;;;2.92;2.00;;;;;;;;;;5108221;28;20028;-44
2022/12/23 16:08:39;;;;;;;5.10;2.00;;;;;;;;;;5103384;28;20063;-46
2022/12/23 16:11:05;;;;;;;3.13;2.05;;;;;;;;;;5102015;28;20036;-45
2022/12/23 16:13:31;;;;;;;3.28;1.85;;;;;;;;;;5088164;28;20620;-45
2022/12/23 16:16:16;;;;;;;3.28;2.03;;;;;;;;;;5087308;28;20040;-44
2022/12/23 16:18:43;;;;;;;5.50;2.60;;;;;;;;;;5092828;28;20043;-46
2022/12/23 16:21:12;;;;;;;3.03;2.17;;;;;;;;;;5100173;28;20556;-46
2022/12/23 16:23:40;;;;;;;2.05;1.67;;;;;;;;;;5086855;28;20024;-48
2022/12/23 16:26:10;;;;;;;4.00;1.95;;;;;;;;;;5086627;28;20028;-45
2022/12/23 16:28:41;;;;;;;5.18;2.47;;;;;;;;;;5105455;28;20060;-48
2022/12/23 16:31:09;;;;;;;3.72;1.88;;;;;;;;;;5106661;28;20118;-45
2022/12/23 16:33:38;;;;;;;3.70;2.17;;;;;;;;;;5106675;28;20038;-45
2022/12/23 16:36:33;;;;;;;7.07;2.58;;;;;;;;;;5105352;28;20027;-47
2022/12/23 16:39:08;;;;;;;5.03;2.17;;;;;;;;;;5086254;28;20112;-45
2022/12/23 16:41:34;;;;;;;3.55;2.10;;;;;;;;;;5087562;28;20063;-45
2022/12/23 16:44:01;;;;;;;3.70;1.90;;;;;;;;;;5086214;28;20507;-46
2022/12/23 16:46:27;;;;;;;2.55;1.85;;;;;;;;;;5098524;28;20100;-47
2022/12/23 16:48:58;;;;;;;2.92;2.00;;;;;;;;;;5106481;28;20100;-45
2022/12/23 16:51:25;;;;;;;2.38;1.75;;;;;;;;;;5105615;28;20019;-45
2022/12/23 16:53:56;;;;;;;3.15;1.63;;;;;;;;;;5105152;28;20034;-46
2022/12/23 16:56:42;;;;;;;2.47;1.80;;;;;;;;;;5108965;28;20047;-47
2022/12/23 16:59:08;;;;;;;3.78;1.95;;;;;;;;;;5109170;28;20031;-47
2022/12/23 17:01:45;;;;;;;2.60;1.60;;;;;;;;;;5110453;28;20038;-47
2022/12/23 17:04:12;;;;;;;4.03;2.05;;;;;;;;;;5110738;28;20027;-45
2022/12/23 17:06:39;;;;;;;3.45;2.05;;;;;;;;;;5110262;28;20020;-44
2022/12/23 17:09:06;;;;;;;6.05;1.75;;;;;;;;;;5110096;28;20015;-45
2022/12/23 17:11:32;;;;;;;3.40;1.60;;;;;;;;;;5110358;28;20034;-45
2022/12/23 17:13:58;;;;;;;2.83;1.85;;;;;;;;;;5091827;28;20032;-46
2022/12/23 17:16:24;;;;;;;3.00;1.55;;;;;;;;;;5089818;28;20032;-46
2022/12/23 17:18:52;;;;;;;3.22;1.58;;;;;;;;;;5094987;28;20039;-46
2022/12/23 17:21:20;;;;;;;4.47;2.25;;;;;;;;;;5109824;28;20138;-48
2022/12/23 17:23:46;;;;;;;2.35;1.70;;;;;;;;;;5109975;28;20414;-45
2022/12/23 17:26:12;;;;;;;3.35;1.80;;;;;;;;;;5110787;28;20096;-47
2022/12/23 17:28:39;;;;;;;3.83;1.90;;;;;;;;;;5108971;28;20035;-47
2022/12/23 17:31:05;;;;;;;3.05;1.70;;;;;;;;;;5106250;28;20040;-46
2022/12/23 17:33:32;;;;;;;3.38;1.67;;;;;;;;;;5089356;28;20073;-48
2022/12/23 17:35:59;;;;;;;4.55;2.10;;;;;;;;;;5097840;28;20034;-45
2022/12/23 17:38:29;;;;;;;4.47;2.08;;;;;;;;;;5109961;28;20027;-46
2022/12/23 17:40:57;;;;;;;4.95;2.17;;;;;;;;;;5108805;28;20037;-44
2022/12/23 17:43:23;;;;;;;2.70;1.85;;;;;;;;;;5100989;28;20490;-45
2022/12/23 17:45:50;;;;;;;4.45;2.35;;;;;;;;;;5101584;28;20525;-45
2022/12/23 17:48:16;;;;;;;3.47;2.20;;;;;;;;;;5109555;28;20122;-45
2022/12/23 17:50:43;;;;;;;2.58;1.83;;;;;;;;;;5108608;28;20019;-46
2022/12/23 17:53:13;;;;;;;5.00;2.33;;;;;;;;;;5109513;28;20024;-46
2022/12/23 17:55:39;;;;;;;2.95;1.88;;;;;;;;;;5091613;28;20354;-48
2022/12/23 17:58:05;;;;;;;4.15;1.92;;;;;;;;;;5096820;28;20363;-46
2022/12/23 18:00:32;;;;;;;3.63;2.25;;;;;;;;;;5109347;28;20047;-47
2022/12/23 18:02:58;;;;;;;4.35;2.40;;;;;;;;;;5109310;28;20081;-44
2022/12/23 18:05:28;;;;;;;3.33;2.10;;;;;;;;;;5109316;28;20024;-46
2022/12/23 18:07:55;;;;;;;1.85;1.50;;;;;;;;;;5108616;28;20067;-44
2022/12/23 18:10:23;;;;;;;3.90;2.10;;;;;;;;;;5108102;28;20031;-45
2022/12/23 18:12:52;;;;;;;2.70;1.90;;;;;;;;;;5108636;28;20038;-48
2022/12/23 18:15:44;;;;;;;3.63;2.13;;;;;;;;;;5108836;28;20027;-46
2022/12/23 18:18:18;;;;;;;3.72;2.10;;;;;;;;;;5104517;28;20045;-45
2022/12/23 18:20:46;;;;;;;3.63;2.08;;;;;;;;;;5109254;28;20035;-46
2022/12/23 18:23:13;;;;;;;3.72;1.88;;;;;;;;;;5094665;28;20480;-48
2022/12/23 18:25:39;;;;;;;2.38;1.77;;;;;;;;;;5097319;28;20118;-45
2022/12/23 18:28:05;;;;;;;2.70;1.60;;;;;;;;;;5108729;28;20520;-47
2022/12/23 18:30:31;;;;;;;2.90;1.63;;;;;;;;;;5108655;28;20047;-46
2022/12/23 18:32:57;;;;;;;2.90;1.58;;;;;;;;;;5108870;28;20498;-44
2022/12/23 18:35:26;;;;;;;3.25;2.08;;;;;;;;;;5108938;27;20042;-47
2022/12/23 18:37:53;;;;;;;3.00;1.55;;;;;;;;;;5092971;28;20073;-45
2022/12/23 18:40:19;;;;;;;1.95;1.60;;;;;;;;;;5096226;28;20106;-45
2022/12/23 18:42:45;;;;;;;2.70;1.92;;;;;;;;;;5105933;28;20084;-43
2022/12/23 18:45:20;;;;;;;4.18;2.50;;;;;;;;;;5103304;28;20028;-45
2022/12/23 18:47:46;;;;;;;3.80;1.98;;;;;;;;;;5109619;28;20028;-44
2022/12/23 18:50:12;;;;;;;4.47;2.85;;;;;;;;;;5109254;28;20132;-45
2022/12/23 18:52:38;;;;;;;3.47;1.80;;;;;;;;;;5109308;28;20055;-44
2022/12/23 18:55:05;;;;;;;5.07;2.20;;;;;;;;;;5109423;28;20028;-44
2022/12/23 18:57:31;;;;;;;4.20;2.25;;;;;;;;;;5108170;28;20106;-46
2022/12/23 18:59:57;;;;;;;2.50;1.80;;;;;;;;;;5109449;28;20024;-45
2022/12/23 19:02:23;;;;;;;2.15;1.60;;;;;;;;;;5108826;28;20494;-44
2022/12/23 19:04:49;;;;;;;3.28;1.83;;;;;;;;;;5109252;28;20031;-44
2022/12/23 19:07:15;;;;;;;2.08;1.65;;;;;;;;;;5107447;28;20070;-44
2022/12/23 19:09:41;;;;;;;3.08;1.98;;;;;;;;;;5109469;28;20470;-48
2022/12/23 19:12:07;;;;;;;2.38;1.52;;;;;;;;;;5108305;27;20483;-45
2022/12/23 19:14:34;;;;;;;1.95;1.33;;;;;;;;;;5109173;28;20114;-46
2022/12/23 19:17:00;;;;;;;1.65;1.15;;;;;;;;;;5105899;28;20032;-47
2022/12/23 19:19:26;;;;;;;2.03;1.52;;;;;;;;;;5104927;28;20028;-47
2022/12/23 19:21:52;;;;;;;1.25;1.10;;;;;;;;;;5106287;28;20031;-45
2022/12/23 19:24:18;;;;;;;1.58;1.27;;;;;;;;;;5104711;28;20344;-49
2022/12/23 19:26:44;;;;;;;1.48;1.23;;;;;;;;;;5106507;28;20118;-47
2022/12/23 19:29:11;;;;;;;1.85;1.40;;;;;;;;;;5106173;28;20474;-48
2022/12/23 19:31:39;;;;;;;1.83;1.30;;;;;;;;;;5105050;28;20406;-46
2022/12/23 19:34:05;;;;;;;1.38;1.10;;;;;;;;;;5106307;28;20482;-49
2022/12/23 19:36:31;;;;;;;1.20;1.10;;;;;;;;;;5087755;28;20065;-48
2022/12/23 19:38:57;;;;;;;2.28;1.70;;;;;;;;;;5105939;28;20062;-48
2022/12/23 19:41:23;;;;;;;2.35;1.80;;;;;;;;;;5085577;28;20023;-48
2022/12/23 19:43:49;;;;;;;3.15;2.13;;;;;;;;;;5105062;28;20498;-47
2022/12/23 19:46:16;;;;;;;2.67;1.88;;;;;;;;;;5104522;28;20027;-48
2022/12/23 19:48:42;;;;;;;2.58;2.03;;;;;;;;;;5102491;28;20070;-47
2022/12/23 19:51:12;;;;;;;2.75;2.28;;;;;;;;;;5102002;28;20028;-46
2022/12/23 19:53:39;;;;;;;2.45;1.83;;;;;;;;;;5102356;28;20055;-48
2022/12/23 19:56:13;;;;;;;2.80;1.80;;;;;;;;;;5105105;28;20488;-45
2022/12/23 19:58:40;;;;;;;2.83;2.13;;;;;;;;;;5105336;28;20038;-46
2022/12/23 20:01:09;;;;;;;2.35;2.00;;;;;;;;;;5105136;28;20145;-48
2022/12/23 20:03:35;;;;;;;2.58;1.90;;;;;;;;;;5096432;28;20036;-46
2022/12/23 20:06:02;;;;;;;2.10;1.75;;;;;;;;;;5087676;28;20434;-48
2022/12/23 20:08:29;;;;;;;1.92;1.58;;;;;;;;;;5105209;28;20550;-49
2022/12/23 20:11:02;;;;;;;1.73;1.50;;;;;;;;;;5086520;28;20141;-46
2022/12/23 20:13:28;;;;;;;1.92;1.70;;;;;;;;;;5105478;28;20107;-48
2022/12/23 20:15:55;;;;;;;3.28;1.85;;;;;;;;;;5082845;28;21549;-47
2022/12/23 20:18:21;;;;;;;1.73;1.30;;;;;;;;;;5085618;28;20020;-46